createdAt,value
2023-05-04T00:00:19.954Z,1.80
2023-05-04T00:05:12.536Z,2.42
2023-05-04T00:10:04.914Z,2.40
2023-05-04T00:14:56.705Z,2.60
2023-05-04T00:19:48.310Z,2.60
2023-05-04T00:24:39.899Z,2.38
2023-05-04T00:29:31.604Z,3.03
2023-05-04T00:34:23.167Z,2.53
2023-05-04T00:39:14.820Z,3.50
2023-05-04T00:44:06.532Z,2.25
2023-05-04T00:48:59.805Z,2.28
2023-05-04T00:53:52.031Z,2.28
2023-05-04T00:58:43.842Z,2.92
2023-05-04T01:03:35.761Z,2.65
2023-05-04T01:08:42.595Z,2.53
2023-05-04T01:13:35.929Z,2.60
2023-05-04T01:18:27.481Z,2.58
2023-05-04T01:23:19.095Z,3.78
2023-05-04T01:28:19.360Z,3.10
2023-05-04T01:33:11.462Z,2.30
2023-05-04T01:38:04.101Z,2.92
2023-05-04T01:42:55.870Z,3.75
2023-05-04T01:47:48.150Z,2.72
2023-05-04T01:52:39.823Z,3.75
2023-05-04T01:57:31.409Z,3.50
2023-05-04T02:02:23.429Z,2.70
2023-05-04T02:07:15.037Z,3.55
2023-05-04T02:12:06.843Z,3.28
2023-05-04T02:16:58.375Z,2.97
2023-05-04T02:21:49.964Z,3.03
2023-05-04T02:26:41.535Z,3.05
2023-05-04T02:31:34.060Z,3.60
2023-05-04T02:36:25.776Z,3.50
2023-05-04T02:41:17.402Z,4.22
2023-05-04T02:46:09.014Z,3.50
2023-05-04T02:51:00.795Z,4.05
2023-05-04T02:55:52.371Z,4.05
2023-05-04T03:00:43.979Z,4.18
2023-05-04T03:05:35.685Z,4.05
2023-05-04T03:10:27.246Z,4.53
2023-05-04T03:15:18.815Z,5.15
2023-05-04T03:20:13.244Z,4.38
2023-05-04T03:25:05.319Z,4.85
2023-05-04T03:29:56.896Z,4.18
2023-05-04T03:34:48.462Z,5.72
2023-05-04T03:39:40.200Z,5.18
2023-05-04T03:44:31.824Z,4.47
2023-05-04T03:49:23.763Z,4.50
2023-05-04T03:54:15.371Z,5.18
2023-05-04T03:59:06.979Z,4.85
2023-05-04T04:03:58.842Z,5.25
2023-05-04T04:08:50.522Z,4.63
2023-05-04T04:13:42.135Z,4.18
2023-05-04T04:18:33.886Z,5.25
2023-05-04T04:23:25.617Z,4.68
2023-05-04T04:28:17.534Z,5.60
2023-05-04T04:33:10.305Z,5.25
2023-05-04T04:38:03.717Z,6.30
2023-05-04T04:42:56.375Z,5.18
2023-05-04T04:47:48.297Z,5.25
2023-05-04T04:52:41.454Z,4.30
2023-05-04T04:57:33.415Z,4.93
2023-05-04T05:02:25.073Z,5.53
2023-05-04T05:07:16.738Z,6.32
2023-05-04T05:12:08.335Z,6.65
2023-05-04T05:17:00.127Z,6.25
2023-05-04T05:21:53.099Z,7.45
2023-05-04T05:26:44.645Z,6.50
2023-05-04T05:31:36.300Z,6.90
2023-05-04T05:36:28.109Z,7.60
2023-05-04T05:41:19.777Z,7.55
2023-05-04T05:46:12.302Z,7.53
2023-05-04T05:51:04.206Z,7.07
2023-05-04T05:55:55.824Z,6.65
2023-05-04T06:00:48.187Z,7.00
2023-05-04T06:05:39.824Z,8.05
2023-05-04T06:10:31.903Z,8.27
2023-05-04T06:15:23.480Z,7.75
2023-05-04T06:20:15.572Z,7.35
2023-05-04T06:25:08.296Z,6.93
2023-05-04T06:30:00.070Z,6.90
2023-05-04T06:34:55.587Z,8.20
2023-05-04T06:39:47.327Z,8.25
2023-05-04T06:44:40.053Z,7.10
2023-05-04T06:49:32.452Z,6.65
2023-05-04T06:54:24.185Z,7.90
2023-05-04T06:59:16.964Z,7.10
2023-05-04T07:04:08.599Z,7.03
2023-05-04T07:09:00.730Z,7.22
2023-05-04T07:13:52.384Z,6.28
2023-05-04T07:18:44.017Z,7.78
2023-05-04T07:23:35.613Z,6.85
2023-05-04T07:28:27.202Z,6.25
2023-05-04T07:33:18.901Z,7.15
2023-05-04T07:38:10.581Z,6.03
2023-05-04T07:43:02.183Z,7.00
2023-05-04T07:47:53.728Z,7.07
2023-05-04T07:52:47.776Z,6.25
2023-05-04T07:57:39.925Z,7.15
2023-05-04T08:02:31.683Z,7.25
2023-05-04T08:07:23.445Z,6.22
2023-05-04T08:12:15.079Z,6.97
2023-05-04T08:17:06.621Z,6.25
2023-05-04T08:21:58.221Z,6.32
2023-05-04T08:27:00.012Z,6.57
2023-05-04T08:31:59.519Z,6.65
2023-05-04T08:36:52.727Z,6.47
2023-05-04T08:41:44.982Z,5.97
2023-05-04T08:46:37.814Z,6.50
2023-05-04T08:51:33.336Z,6.32
2023-05-04T08:56:25.765Z,5.45
2023-05-04T09:01:18.605Z,7.07
2023-05-04T09:06:11.560Z,6.35
2023-05-04T09:11:03.907Z,6.13
2023-05-04T09:15:56.001Z,5.82
2023-05-04T09:20:48.258Z,6.05
2023-05-04T09:26:06.349Z,5.90
2023-05-04T09:31:00.751Z,6.10
2023-05-04T09:35:52.512Z,6.85
2023-05-04T09:40:44.066Z,5.65
2023-05-04T09:45:42.871Z,5.85
2023-05-04T09:50:35.584Z,6.70
2023-05-04T09:55:28.549Z,6.53
2023-05-04T10:00:20.496Z,7.30
2023-05-04T10:05:17.817Z,6.45
2023-05-04T10:10:11.992Z,6.40
2023-05-04T10:15:10.494Z,7.07
2023-05-04T10:20:22.242Z,6.22
2023-05-04T10:25:32.090Z,6.53
2023-05-04T10:30:24.185Z,7.25
2023-05-04T10:35:18.758Z,6.50
2023-05-04T10:40:11.095Z,6.63
2023-05-04T10:45:03.305Z,7.20
2023-05-04T10:50:06.447Z,6.88
2023-05-04T10:55:00.838Z,6.93
2023-05-04T10:59:57.294Z,6.55
2023-05-04T11:04:59.638Z,7.70
2023-05-04T11:09:51.269Z,7.13
2023-05-04T11:14:43.506Z,6.10
2023-05-04T11:19:35.464Z,5.47
2023-05-04T11:24:27.229Z,5.07
2023-05-04T11:29:19.517Z,6.70
2023-05-04T11:34:19.747Z,6.75
2023-05-04T11:39:11.615Z,6.68
2023-05-04T11:44:04.409Z,6.32
2023-05-04T11:48:56.217Z,5.85
2023-05-04T11:53:47.879Z,5.65
2023-05-04T11:58:39.477Z,5.43
2023-05-04T12:03:52.259Z,5.82
2023-05-04T12:08:45.986Z,4.53
2023-05-04T12:13:38.089Z,4.90
2023-05-04T12:18:30.052Z,4.22
2023-05-04T12:23:22.072Z,4.57
2023-05-04T12:28:13.625Z,4.53
2023-05-04T12:33:05.877Z,4.28
2023-05-04T12:37:57.485Z,4.13
2023-05-04T12:42:49.300Z,3.20
2023-05-04T12:47:41.519Z,3.25
2023-05-04T12:52:33.120Z,3.50
2023-05-04T12:57:24.686Z,3.42
2023-05-04T13:02:16.243Z,4.15
2023-05-04T13:07:07.985Z,3.58
2023-05-04T13:11:59.655Z,3.67
2023-05-04T13:16:52.561Z,3.70
2023-05-04T13:21:44.207Z,3.88
2023-05-04T13:26:36.080Z,3.85
2023-05-04T13:31:27.713Z,3.13
2023-05-04T13:36:20.642Z,4.30
2023-05-04T13:41:12.332Z,3.17
2023-05-04T13:46:04.740Z,3.92
2023-05-04T13:50:56.838Z,3.25
2023-05-04T13:55:48.466Z,3.80
2023-05-04T14:00:40.302Z,3.78
2023-05-04T14:05:32.129Z,3.38
2023-05-04T14:10:23.805Z,3.10
2023-05-04T14:15:16.607Z,3.40
2023-05-04T14:20:08.961Z,4.07
2023-05-04T14:25:00.844Z,3.47
2023-05-04T14:29:52.633Z,3.95
2023-05-04T14:34:46.594Z,4.45
2023-05-04T14:39:39.490Z,3.67
2023-05-04T14:44:31.070Z,4.70
2023-05-04T14:49:35.979Z,4.28
2023-05-04T14:54:29.019Z,3.58
2023-05-04T14:59:20.569Z,3.60
2023-05-04T15:04:13.640Z,4.60
2023-05-04T15:09:05.258Z,3.85
2023-05-04T15:13:58.882Z,4.35
2023-05-04T15:18:50.425Z,4.50
2023-05-04T15:23:42.070Z,3.95
2023-05-04T15:28:33.879Z,4.38
2023-05-04T15:33:25.493Z,4.97
2023-05-04T15:38:18.167Z,4.68
2023-05-04T15:43:09.733Z,4.88
2023-05-04T15:48:01.361Z,4.07
2023-05-04T15:52:53.076Z,4.38
2023-05-04T15:57:44.780Z,4.78
2023-05-04T16:02:36.397Z,4.90
2023-05-04T16:07:28.357Z,4.88
2023-05-04T16:12:20.639Z,4.65
2023-05-04T16:17:12.549Z,5.35
2023-05-04T16:22:04.225Z,5.18
2023-05-04T16:26:56.093Z,4.72
2023-05-04T16:31:48.374Z,5.32
2023-05-04T16:36:40.072Z,5.15
2023-05-04T16:41:31.736Z,4.95
2023-05-04T16:46:23.575Z,4.53
2023-05-04T16:51:15.155Z,5.07
2023-05-04T16:56:07.518Z,4.88
2023-05-04T17:00:59.056Z,5.15
2023-05-04T17:05:51.216Z,4.88
2023-05-04T17:10:42.965Z,5.60
2023-05-04T17:15:34.637Z,4.85
2023-05-04T17:20:30.427Z,4.75
2023-05-04T17:25:22.060Z,4.38
2023-05-04T17:30:13.896Z,5.45
2023-05-04T17:35:20.216Z,4.88
2023-05-04T17:40:15.650Z,4.40
2023-05-04T17:45:07.716Z,4.20
2023-05-04T17:49:59.429Z,4.57
2023-05-04T17:54:52.782Z,3.50
2023-05-04T17:59:44.404Z,3.25
2023-05-04T18:04:37.570Z,3.67
2023-05-04T18:09:29.396Z,3.55
2023-05-04T18:14:21.165Z,3.85
2023-05-04T18:19:12.735Z,3.25
2023-05-04T18:24:04.776Z,3.70
2023-05-04T18:29:04.266Z,3.70
2023-05-04T18:34:04.102Z,3.63
2023-05-04T18:38:58.658Z,4.07
2023-05-04T18:43:50.383Z,3.88
2023-05-04T18:48:41.953Z,3.47
2023-05-04T18:53:33.532Z,4.03
2023-05-04T18:58:25.103Z,3.50
2023-05-04T19:03:16.898Z,3.83
2023-05-04T19:08:08.504Z,3.80
2023-05-04T19:13:01.356Z,3.53
2023-05-04T19:17:53.169Z,4.60
2023-05-04T19:22:44.780Z,4.07
2023-05-04T19:27:36.574Z,3.75
2023-05-04T19:32:28.725Z,3.88
2023-05-04T19:37:20.672Z,5.25
2023-05-04T19:42:12.344Z,4.50
2023-05-04T19:47:04.038Z,4.40
2023-05-04T19:51:55.732Z,4.53
2023-05-04T19:56:47.279Z,4.78
2023-05-04T20:01:38.863Z,4.53
2023-05-04T20:06:30.451Z,5.35
2023-05-04T20:11:22.097Z,5.93
2023-05-04T20:16:13.702Z,5.43
2023-05-04T20:21:05.481Z,5.13
2023-05-04T20:25:57.223Z,5.28
2023-05-04T20:30:48.958Z,5.53
2023-05-04T20:35:41.579Z,5.97
2023-05-04T20:40:33.377Z,6.45
2023-05-04T20:45:24.954Z,6.18
2023-05-04T20:50:20.414Z,6.97
2023-05-04T20:55:12.083Z,7.03
2023-05-04T21:00:04.227Z,7.00
2023-05-04T21:04:55.843Z,6.85
2023-05-04T21:09:47.434Z,7.10
2023-05-04T21:14:38.973Z,7.70
2023-05-04T21:19:30.860Z,7.90
2023-05-04T21:24:23.128Z,7.75
2023-05-04T21:29:15.029Z,7.93
2023-05-04T21:34:07.315Z,6.75
2023-05-04T21:38:59.167Z,7.50
2023-05-04T21:43:51.271Z,7.60
2023-05-04T21:48:43.180Z,6.15
2023-05-04T21:53:34.765Z,5.75
2023-05-04T21:58:26.567Z,6.63
2023-05-04T22:03:18.141Z,5.70
2023-05-04T22:08:09.893Z,4.53
2023-05-04T22:13:01.521Z,3.47
2023-05-04T22:17:53.203Z,3.28
2023-05-04T22:22:44.804Z,2.75
2023-05-04T22:27:36.580Z,1.60
2023-05-04T22:32:28.129Z,1.75
2023-05-04T22:37:19.723Z,1.80
2023-05-04T22:42:11.305Z,1.52
2023-05-04T22:47:02.889Z,1.00
2023-05-04T22:51:54.539Z,0.80
2023-05-04T22:56:46.122Z,0.60
2023-05-04T23:01:42.724Z,0.50
2023-05-04T23:06:34.672Z,0.50
2023-05-04T23:11:26.238Z,0.35
2023-05-04T23:16:18.139Z,0.50
2023-05-04T23:21:09.789Z,0.40
2023-05-04T23:26:01.343Z,0.40
2023-05-04T23:30:54.393Z,0.30
2023-05-04T23:35:46.012Z,0.30
2023-05-04T23:40:37.593Z,0.30
2023-05-04T23:45:29.341Z,0.40
2023-05-04T23:50:21.056Z,0.40
2023-05-04T23:55:12.997Z,0.50
